createdAt,value
2018-03-24T00:00:37.466Z,99305.55
2018-03-24T00:03:06.571Z,99304.42
2018-03-24T00:05:36.445Z,99300.16
2018-03-24T00:08:05.551Z,99310.00
2018-03-24T00:10:34.657Z,99302.59
2018-03-24T00:13:03.754Z,99296.38
2018-03-24T00:15:32.930Z,99288.72
2018-03-24T00:18:02.826Z,99291.55
2018-03-24T00:20:32.695Z,99298.16
2018-03-24T00:23:01.777Z,99297.03
2018-03-24T00:25:30.900Z,99301.55
2018-03-24T00:27:59.998Z,99294.15
2018-03-24T00:30:29.137Z,99287.76
2018-03-24T00:32:59.012Z,99287.70
2018-03-24T00:35:28.127Z,99287.81
2018-03-24T00:37:58.196Z,99270.37
2018-03-24T00:40:27.295Z,99283.43
2018-03-24T00:42:56.406Z,99281.66
2018-03-24T00:45:25.497Z,99278.17
2018-03-24T00:47:54.607Z,99269.13
2018-03-24T00:50:23.714Z,99269.36
2018-03-24T00:52:52.838Z,99264.18
2018-03-24T00:55:21.919Z,99264.91
2018-03-24T00:57:51.802Z,99267.69
2018-03-24T01:00:20.898Z,99267.59
2018-03-24T01:02:50.783Z,99268.20
2018-03-24T01:05:19.890Z,99257.53
2018-03-24T01:07:48.990Z,99258.55
2018-03-24T01:10:18.096Z,99254.72
2018-03-24T01:12:47.969Z,99256.36
2018-03-24T01:15:17.101Z,99244.56
2018-03-24T01:17:46.184Z,99245.14
2018-03-24T01:20:15.300Z,99240.94
2018-03-24T01:22:44.412Z,99238.94
2018-03-24T01:25:13.519Z,99238.19
2018-03-24T01:27:43.405Z,99235.99
2018-03-24T01:30:12.482Z,99236.69
2018-03-24T01:32:41.613Z,99238.02
2018-03-24T01:35:10.695Z,99235.20
2018-03-24T01:37:39.798Z,99230.10
2018-03-24T01:40:08.908Z,99233.67
2018-03-24T01:42:38.009Z,99230.38
2018-03-24T01:45:07.106Z,99225.02
2018-03-24T01:47:36.979Z,99228.06
2018-03-24T01:50:06.095Z,99221.69
2018-03-24T01:52:35.186Z,99224.51
2018-03-24T01:55:04.291Z,99218.29
2018-03-24T01:57:33.385Z,99213.41
2018-03-24T02:00:02.511Z,99206.25
2018-03-24T02:02:31.625Z,99214.97
2018-03-24T02:05:00.709Z,99206.80
2018-03-24T02:07:29.810Z,99206.97
2018-03-24T02:09:58.919Z,99203.72
2018-03-24T02:12:28.066Z,99198.41
2018-03-24T02:14:59.065Z,99197.74
2018-03-24T02:17:28.189Z,99197.69
2018-03-24T02:19:59.029Z,99191.77
2018-03-24T02:22:28.141Z,99194.00
2018-03-24T02:24:58.595Z,99183.30
2018-03-24T02:27:28.449Z,99187.02
2018-03-24T02:29:59.084Z,99179.83
2018-03-24T02:32:28.970Z,99173.30
2018-03-24T02:34:59.115Z,99170.97
2018-03-24T02:37:28.213Z,99171.69
2018-03-24T02:39:59.051Z,99169.48
2018-03-24T02:42:28.143Z,99173.72
2018-03-24T02:44:59.087Z,99171.67
2018-03-24T02:47:28.196Z,99168.90
2018-03-24T02:49:58.292Z,99165.29
2018-03-24T02:52:27.394Z,99167.86
2018-03-24T02:54:56.494Z,99175.53
2018-03-24T02:57:25.637Z,99167.23
2018-03-24T02:59:55.487Z,99170.78
2018-03-24T03:02:24.596Z,99170.11
2018-03-24T03:04:54.471Z,99173.03
2018-03-24T03:07:23.589Z,99171.27
2018-03-24T03:09:52.714Z,99171.91
2018-03-24T03:12:21.814Z,99167.11
2018-03-24T03:14:51.678Z,99161.37
2018-03-24T03:17:20.792Z,99161.79
2018-03-24T03:19:49.887Z,99166.31
2018-03-24T03:22:19.012Z,99158.45
2018-03-24T03:24:48.137Z,99160.91
2018-03-24T03:27:17.322Z,99158.19
2018-03-24T03:29:47.945Z,99158.88
2018-03-24T03:32:18.904Z,99158.94
2018-03-24T03:34:48.024Z,99150.97
2018-03-24T03:37:17.894Z,99154.83
2018-03-24T03:39:46.995Z,99154.00
2018-03-24T03:42:16.098Z,99152.56
2018-03-24T03:44:46.730Z,99153.72
2018-03-24T03:47:15.831Z,99144.48
2018-03-24T03:49:44.935Z,99151.38
2018-03-24T03:52:14.050Z,99143.80
2018-03-24T03:54:43.910Z,99155.00
2018-03-24T03:57:12.985Z,99147.39
2018-03-24T03:59:42.106Z,99148.35
2018-03-24T04:02:11.220Z,99144.95
2018-03-24T04:04:40.338Z,99146.86
2018-03-24T04:07:10.211Z,99145.74
2018-03-24T04:09:39.315Z,99141.45
2018-03-24T04:12:09.180Z,99138.10
2018-03-24T04:14:38.297Z,99141.24
2018-03-24T04:17:07.386Z,99144.58
2018-03-24T04:19:36.494Z,99140.50
2018-03-24T04:22:05.602Z,99139.58
2018-03-24T04:24:34.681Z,99134.65
2018-03-24T04:27:03.788Z,99135.93
2018-03-24T04:29:33.652Z,99133.53
2018-03-24T04:32:02.757Z,99136.81
2018-03-24T04:34:32.624Z,99138.04
2018-03-24T04:37:02.499Z,99132.78
2018-03-24T04:39:31.589Z,99128.38
2018-03-24T04:42:00.726Z,99138.15
2018-03-24T04:44:29.822Z,99128.89
2018-03-24T04:46:58.930Z,99140.91
2018-03-24T04:49:28.025Z,99140.12
2018-03-24T04:51:58.387Z,99137.03
2018-03-24T04:54:28.248Z,99145.08
2018-03-24T04:56:59.204Z,99145.16
2018-03-24T04:59:28.301Z,99139.59
2018-03-24T05:01:58.396Z,99139.37
2018-03-24T05:04:27.495Z,99142.18
2018-03-24T05:06:56.582Z,99137.83
2018-03-24T05:09:26.473Z,99138.63
2018-03-24T05:11:56.337Z,99141.33
2018-03-24T05:14:25.423Z,99136.44
2018-03-24T05:16:54.526Z,99135.74
2018-03-24T05:19:24.427Z,99135.46
2018-03-24T05:21:53.561Z,99132.17
2018-03-24T05:24:22.669Z,99132.18
2018-03-24T05:26:51.779Z,99137.17
2018-03-24T05:29:20.875Z,99130.12
2018-03-24T05:31:50.756Z,99134.90
2018-03-24T05:34:19.867Z,99137.88
2018-03-24T05:36:50.477Z,99141.28
2018-03-24T05:39:19.576Z,99148.46
2018-03-24T05:41:48.696Z,99145.78
2018-03-24T05:44:17.770Z,99145.21
2018-03-24T05:46:46.882Z,99147.59
2018-03-24T05:49:16.766Z,99147.80
2018-03-24T05:51:45.869Z,99153.54
2018-03-24T05:54:14.985Z,99151.62
2018-03-24T05:56:44.098Z,99147.42
2018-03-24T05:59:13.983Z,99151.98
2018-03-24T06:01:43.082Z,99157.24
2018-03-24T06:04:12.205Z,99149.92
2018-03-24T06:06:42.075Z,99160.28
2018-03-24T06:09:11.203Z,99159.06
2018-03-24T06:11:40.324Z,99161.66
2018-03-24T06:14:10.234Z,99164.47
2018-03-24T06:16:40.083Z,99165.70
2018-03-24T06:19:09.190Z,99161.03
2018-03-24T06:21:38.298Z,99160.77
2018-03-24T06:24:07.387Z,99164.13
2018-03-24T06:26:36.492Z,99171.16
2018-03-24T06:29:05.604Z,99176.05
2018-03-24T06:31:34.984Z,99179.98
2018-03-24T06:34:04.093Z,99175.42
2018-03-24T06:36:33.182Z,99181.05
2018-03-24T06:39:02.315Z,99184.67
2018-03-24T06:41:32.180Z,99175.05
2018-03-24T06:44:01.382Z,99180.47
2018-03-24T06:46:30.480Z,99175.09
2018-03-24T06:48:59.598Z,99176.31
2018-03-24T06:51:28.699Z,99177.49
2018-03-24T06:53:58.577Z,99175.72
2018-03-24T06:56:27.721Z,99175.98
2018-03-24T06:58:56.802Z,99182.62
2018-03-24T07:01:25.903Z,99180.96
2018-03-24T07:03:55.785Z,99178.41
2018-03-24T07:06:24.888Z,99181.63
2018-03-24T07:08:54.009Z,99174.05
2018-03-24T07:11:23.115Z,99175.33
2018-03-24T07:13:52.955Z,99184.16
2018-03-24T07:16:22.074Z,99177.78
2018-03-24T07:18:51.171Z,99183.91
2018-03-24T07:21:20.326Z,99181.58
2018-03-24T07:23:49.399Z,99182.34
2018-03-24T07:26:18.513Z,99190.64
2018-03-24T07:28:47.607Z,99177.85
2018-03-24T07:31:17.490Z,99180.56
2018-03-24T07:33:47.382Z,99182.30
2018-03-24T07:36:16.496Z,99184.21
2018-03-24T07:38:46.393Z,99189.58
2018-03-24T07:41:15.494Z,99185.73
2018-03-24T07:43:44.593Z,99186.12
2018-03-24T07:46:14.488Z,99181.02
2018-03-24T07:48:43.618Z,99189.59
2018-03-24T07:51:12.722Z,99194.52
2018-03-24T07:53:41.866Z,99194.30
2018-03-24T07:56:11.718Z,99190.71
2018-03-24T07:58:40.843Z,99192.95
2018-03-24T08:01:09.984Z,99189.30
2018-03-24T08:03:39.131Z,99188.62
2018-03-24T08:06:08.212Z,99197.91
2018-03-24T08:08:37.368Z,99198.25
2018-03-24T08:11:06.453Z,99190.97
2018-03-24T08:13:35.600Z,99199.55
2018-03-24T08:16:04.684Z,99194.97
2018-03-24T08:18:34.547Z,99193.19
2018-03-24T08:21:03.649Z,99199.70
2018-03-24T08:23:33.512Z,99204.33
2018-03-24T08:26:02.640Z,99205.09
2018-03-24T08:28:31.734Z,99205.67
2018-03-24T08:31:01.642Z,99198.41
2018-03-24T08:33:30.778Z,99196.96
2018-03-24T08:35:59.929Z,99205.50
2018-03-24T08:38:29.027Z,99200.05
2018-03-24T08:40:59.482Z,99205.05
2018-03-24T08:43:29.539Z,99210.39
2018-03-24T08:45:59.494Z,99206.10
2018-03-24T08:48:28.606Z,99201.27
2018-03-24T08:50:58.766Z,99201.54
2018-03-24T08:53:27.876Z,99201.34
2018-03-24T08:55:57.007Z,99204.41
2018-03-24T08:58:26.121Z,99200.13
2018-03-24T09:00:56.003Z,99204.11
2018-03-24T09:03:25.170Z,99200.89
2018-03-24T09:05:55.005Z,99206.51
2018-03-24T09:08:24.899Z,99203.56
2018-03-24T09:10:53.991Z,99200.13
2018-03-24T09:13:23.108Z,99194.09
2018-03-24T09:15:52.235Z,99196.85
2018-03-24T09:18:22.310Z,99195.54
2018-03-24T09:20:51.438Z,99197.36
2018-03-24T09:23:20.550Z,99193.74
2018-03-24T09:25:49.664Z,99197.64
2018-03-24T09:28:18.781Z,99194.38
2018-03-24T09:30:47.895Z,99193.25
2018-03-24T09:33:17.044Z,99194.67
2018-03-24T09:35:47.823Z,99201.05
2018-03-24T09:38:16.976Z,99207.72
2018-03-24T09:40:46.824Z,99202.29
2018-03-24T09:43:15.977Z,99201.58
2018-03-24T09:45:45.097Z,99199.18
2018-03-24T09:48:14.201Z,99199.83
2018-03-24T09:50:43.308Z,99201.91
2018-03-24T09:53:12.430Z,99204.30
2018-03-24T09:55:41.542Z,99200.89
2018-03-24T09:58:10.674Z,99200.03
2018-03-24T10:00:39.805Z,99200.63
2018-03-24T10:03:08.973Z,99193.42
2018-03-24T10:05:38.876Z,99196.22
2018-03-24T10:08:08.756Z,99194.69
2018-03-24T10:10:38.185Z,99199.56
2018-03-24T10:13:08.218Z,99192.23
2018-03-24T10:15:37.335Z,99197.53
2018-03-24T10:18:06.439Z,99191.81
2018-03-24T10:34:30.053Z,99181.84
2018-03-24T10:36:59.175Z,99182.89
2018-03-24T10:39:28.286Z,99178.41
2018-03-24T10:41:57.444Z,99178.53
2018-03-24T10:44:26.517Z,99173.13
2018-03-24T10:46:55.633Z,99176.62
2018-03-24T10:49:24.743Z,99181.06
2018-03-24T10:51:54.615Z,99184.18
2018-03-24T10:54:23.752Z,99174.19
2018-03-24T10:56:52.853Z,99179.99
2018-03-24T10:59:22.735Z,99172.84
2018-03-24T11:01:51.866Z,99167.42
2018-03-24T11:04:21.760Z,99169.67
2018-03-24T11:06:50.843Z,99166.22
2018-03-24T11:09:19.977Z,99166.81
2018-03-24T11:11:49.835Z,99163.62
2018-03-24T11:14:18.942Z,99160.53
2018-03-24T11:16:49.558Z,99161.84
2018-03-24T11:19:18.704Z,99162.27
2018-03-24T11:21:47.786Z,99163.23
2018-03-24T11:24:17.683Z,99154.76
2018-03-24T11:26:46.837Z,99152.98
2018-03-24T11:29:15.916Z,99158.42
2018-03-24T11:31:45.054Z,99157.98
2018-03-24T11:34:14.145Z,99147.95
2018-03-24T11:36:44.052Z,99153.41
2018-03-24T11:39:13.187Z,99155.84
2018-03-24T11:41:42.287Z,99159.43
2018-03-24T11:44:11.383Z,99148.97
2018-03-24T11:46:40.497Z,99145.92
2018-03-24T11:49:09.608Z,99144.48
2018-03-24T11:51:39.466Z,99150.78
2018-03-24T11:54:08.591Z,99145.74
2018-03-24T11:56:38.537Z,99141.63
2018-03-24T11:59:08.386Z,99141.72
2018-03-24T12:01:38.269Z,99146.23
2018-03-24T12:04:07.396Z,99146.16
2018-03-24T12:06:36.550Z,99144.14
2018-03-24T12:09:05.660Z,99142.38
2018-03-24T12:11:34.791Z,99146.27
2018-03-24T12:14:03.915Z,99141.26
2018-03-24T12:16:33.054Z,99140.37
2018-03-24T12:19:02.229Z,99136.78
2018-03-24T12:21:32.119Z,99141.66
2018-03-24T12:24:01.754Z,99140.94
2018-03-24T12:26:31.644Z,99145.04
2018-03-24T12:29:00.751Z,99149.91
2018-03-24T12:31:30.614Z,99147.23
2018-03-24T12:33:59.756Z,99148.30
2018-03-24T12:36:28.866Z,99135.92
2018-03-24T12:38:58.755Z,99134.80
2018-03-24T12:41:27.870Z,99131.70
2018-03-24T12:43:57.011Z,99132.85
2018-03-24T12:46:26.115Z,99136.88
2018-03-24T12:48:55.217Z,99133.58
2018-03-24T12:51:24.390Z,99138.52
2018-03-24T12:53:53.472Z,99142.00
2018-03-24T12:56:22.604Z,99141.73
2018-03-24T12:58:51.706Z,99133.38
2018-03-24T13:01:20.829Z,99136.79
2018-03-24T13:03:49.948Z,99150.58
2018-03-24T13:06:19.838Z,99136.05
2018-03-24T13:08:48.939Z,99132.25
2018-03-24T13:11:18.850Z,99128.61
2018-03-24T13:13:47.986Z,99133.55
2018-03-24T13:16:17.095Z,99126.77
2018-03-24T13:18:46.223Z,99132.97
2018-03-24T13:21:15.334Z,99134.39
2018-03-24T13:23:45.964Z,99132.42
2018-03-24T13:26:15.092Z,99128.79
2018-03-24T13:28:44.234Z,99131.45
2018-03-24T13:31:13.341Z,99123.70
2018-03-24T13:33:42.474Z,99128.41
2018-03-24T13:36:12.338Z,99117.94
2018-03-24T13:38:41.463Z,99131.55
2018-03-24T13:41:11.559Z,99124.77
2018-03-24T13:43:40.691Z,99123.59
2018-03-24T13:46:09.784Z,99112.93
2018-03-24T13:48:38.889Z,99114.00
2018-03-24T13:51:08.772Z,99106.69
2018-03-24T13:53:37.891Z,99102.40
2018-03-24T13:56:07.030Z,99105.61
2018-03-24T13:58:36.137Z,99100.42
2018-03-24T14:01:05.292Z,99095.78
2018-03-24T14:03:35.182Z,99088.66
2018-03-24T14:06:04.333Z,99085.29
2018-03-24T14:08:33.450Z,99094.98
2018-03-24T14:11:03.168Z,99079.29
2018-03-24T14:13:32.305Z,99080.27
2018-03-24T14:16:02.216Z,99072.73
2018-03-24T14:18:31.342Z,99077.88
2018-03-24T14:21:00.475Z,99059.75
2018-03-24T14:23:30.375Z,99065.61
2018-03-24T14:25:59.510Z,99071.39
2018-03-24T14:28:28.691Z,99072.75
2018-03-24T14:30:58.583Z,99076.42
2018-03-24T14:33:27.731Z,99087.22
2018-03-24T14:35:58.421Z,99078.87
2018-03-24T14:38:27.550Z,99078.66
2018-03-24T14:40:56.647Z,99077.20
2018-03-24T14:43:26.554Z,99073.40
2018-03-24T14:45:56.472Z,99066.05
2018-03-24T14:48:25.603Z,99061.47
2018-03-24T14:50:56.713Z,99059.37
2018-03-24T14:53:25.856Z,99054.56
2018-03-24T14:55:54.949Z,99050.56
2018-03-24T14:58:24.061Z,99048.57
2018-03-24T15:00:53.171Z,99049.60
2018-03-24T15:03:22.292Z,99057.89
2018-03-24T15:05:51.415Z,99063.50
2018-03-24T15:08:21.275Z,99065.89
2018-03-24T15:10:50.429Z,99057.20
2018-03-24T15:13:20.354Z,99061.81
2018-03-24T15:15:49.454Z,99054.61
2018-03-24T15:18:18.559Z,99057.32
2018-03-24T15:20:47.678Z,99062.26
2018-03-24T15:23:16.814Z,99061.77
2018-03-24T15:25:45.954Z,99059.11
2018-03-24T15:28:15.086Z,99057.41
2018-03-24T15:31:01.828Z,99055.63
2018-03-24T15:33:49.355Z,99056.92
2018-03-24T15:36:37.080Z,99050.64
2018-03-24T15:39:06.196Z,99050.81
2018-03-24T15:41:35.336Z,99056.37
2018-03-24T15:44:04.478Z,99052.77
2018-03-24T15:46:34.408Z,99052.30
2018-03-24T15:49:04.323Z,99057.95
2018-03-24T15:51:34.510Z,99059.50
2018-03-24T15:54:03.619Z,99054.54
2018-03-24T15:56:33.489Z,99057.02
2018-03-24T15:59:02.618Z,99064.06
2018-03-24T16:01:31.754Z,99068.83
2018-03-24T16:04:00.925Z,99062.98
2018-03-24T16:06:30.818Z,99068.84
2018-03-24T16:08:59.918Z,99063.49
2018-03-24T16:11:29.049Z,99071.03
2018-03-24T16:13:58.194Z,99069.67
2018-03-24T16:16:27.324Z,99074.70
2018-03-24T16:18:56.430Z,99075.80
2018-03-24T16:21:26.326Z,99072.88
2018-03-24T16:23:55.423Z,99071.01
2018-03-24T16:26:25.306Z,99081.26
2018-03-24T16:28:54.426Z,99074.88
2018-03-24T16:31:23.546Z,99075.98
2018-03-24T16:33:53.431Z,99077.99
2018-03-24T16:36:22.555Z,99084.27
2018-03-24T16:38:52.442Z,99087.59
2018-03-24T16:41:21.541Z,99092.98
2018-03-24T16:43:50.658Z,99092.15
2018-03-24T16:46:20.525Z,99092.50
2018-03-24T16:48:49.659Z,99098.50
2018-03-24T16:51:19.712Z,99099.02
2018-03-24T16:53:49.652Z,99105.52
2018-03-24T16:56:19.707Z,99108.92
2018-03-24T16:58:48.835Z,99119.37
2018-03-24T17:01:17.952Z,99118.67
2018-03-24T17:03:47.070Z,99130.18
2018-03-24T17:06:16.198Z,99128.52
2018-03-24T17:08:45.338Z,99133.91
2018-03-24T17:11:14.486Z,99135.86
2018-03-24T17:13:43.605Z,99133.20
2018-03-24T17:16:13.456Z,99145.13
2018-03-24T17:18:42.581Z,99143.67
2018-03-24T17:21:11.690Z,99142.13
2018-03-24T17:23:40.793Z,99145.47
2018-03-24T17:26:10.690Z,99155.08
2018-03-24T17:28:39.814Z,99156.56
2018-03-24T17:31:09.696Z,99152.38
2018-03-24T17:33:38.837Z,99160.80
2018-03-24T17:36:07.996Z,99159.75
2018-03-24T17:38:37.118Z,99159.03
2018-03-24T17:41:07.020Z,99155.66
2018-03-24T17:43:36.895Z,99158.34
2018-03-24T17:46:06.026Z,99151.61
2018-03-24T17:48:35.155Z,99157.77
2018-03-24T17:51:04.323Z,99156.37
2018-03-24T17:53:36.445Z,99154.53
2018-03-24T17:56:06.160Z,99158.15
2018-03-24T17:58:35.257Z,99157.25
2018-03-24T18:01:04.456Z,99164.48
2018-03-24T18:03:33.573Z,99165.27
2018-03-24T18:06:02.665Z,99171.16
2018-03-24T18:08:33.334Z,99178.02
2018-03-24T18:11:03.205Z,99179.78
2018-03-24T18:13:32.302Z,99179.69
2018-03-24T18:16:02.212Z,99181.86
2018-03-24T18:18:31.300Z,99185.48
2018-03-24T18:21:00.427Z,99189.61
2018-03-24T18:23:29.530Z,99187.16
2018-03-24T18:25:59.451Z,99193.05
2018-03-24T18:28:29.317Z,99197.05
2018-03-24T18:30:58.441Z,99193.67
2018-03-24T18:33:27.548Z,99198.33
2018-03-24T18:35:56.692Z,99196.28
2018-03-24T18:38:25.761Z,99206.67
2018-03-24T18:40:55.672Z,99203.44
2018-03-24T18:43:25.540Z,99203.52
2018-03-24T18:45:54.655Z,99212.14
2018-03-24T18:48:23.786Z,99214.55
2018-03-24T18:50:53.633Z,99213.86
2018-03-24T18:53:22.742Z,99221.42
2018-03-24T18:55:51.897Z,99228.22
2018-03-24T18:58:21.035Z,99221.08
2018-03-24T19:00:50.901Z,99223.34
2018-03-24T19:03:20.816Z,99231.47
2018-03-24T19:05:50.714Z,99230.48
2018-03-24T19:08:19.886Z,99229.84
2018-03-24T19:10:49.788Z,99233.44
2018-03-24T19:13:18.931Z,99239.17
2018-03-24T19:15:48.026Z,99247.79
2018-03-24T19:18:17.894Z,99246.37
2018-03-24T19:20:47.041Z,99242.44
2018-03-24T19:23:16.155Z,99246.02
2018-03-24T19:25:45.304Z,99245.11
2018-03-24T19:28:14.432Z,99249.62
2018-03-24T19:30:44.306Z,99245.81
2018-03-24T19:33:13.443Z,99245.76
2018-03-24T19:35:43.295Z,99245.35
2018-03-24T19:38:12.438Z,99253.13
2018-03-24T19:40:41.554Z,99259.19
2018-03-24T19:43:11.457Z,99260.57
2018-03-24T19:45:40.548Z,99256.06
2018-03-24T19:48:09.667Z,99254.34
2018-03-24T19:50:39.506Z,99255.77
2018-03-24T19:53:08.640Z,99262.99
2018-03-24T19:55:38.563Z,99250.88
2018-03-24T19:58:07.706Z,99253.52
2018-03-24T20:00:36.846Z,99261.03
2018-03-24T20:03:06.739Z,99260.48
2018-03-24T20:05:35.850Z,99257.91
2018-03-24T20:08:05.013Z,99255.61
2018-03-24T20:10:34.178Z,99257.52
2018-03-24T20:13:04.055Z,99255.83
2018-03-24T20:15:33.207Z,99255.41
2018-03-24T20:18:03.089Z,99259.98
2018-03-24T20:20:32.233Z,99266.03
2018-03-24T20:23:01.329Z,99271.91
2018-03-24T20:25:30.435Z,99269.55
2018-03-24T20:28:00.744Z,99269.34
2018-03-24T20:30:29.837Z,99273.58
2018-03-24T20:32:58.985Z,99278.01
2018-03-24T20:35:28.177Z,99277.03
2018-03-24T20:37:57.301Z,99278.81
2018-03-24T20:40:27.181Z,99277.80
2018-03-24T20:42:56.336Z,99286.40
2018-03-24T20:45:26.676Z,99284.48
2018-03-24T20:47:55.769Z,99282.59
2018-03-24T20:50:24.870Z,99275.55
2018-03-24T20:52:54.057Z,99279.58
2018-03-24T20:55:23.143Z,99278.84
2018-03-24T20:57:53.061Z,99285.53
2018-03-24T21:00:22.221Z,99285.77
2018-03-24T21:02:51.344Z,99285.21
2018-03-24T21:05:21.216Z,99287.45
2018-03-24T21:07:50.375Z,99288.33
2018-03-24T21:10:19.451Z,99290.98
2018-03-24T21:12:49.330Z,99295.92
2018-03-24T21:15:18.423Z,99303.36
2018-03-24T21:17:48.304Z,99301.06
2018-03-24T21:20:17.471Z,99310.01
2018-03-24T21:22:46.602Z,99310.39
2018-03-24T21:25:15.731Z,99309.33
2018-03-24T21:27:44.843Z,99311.27
2018-03-24T21:30:13.972Z,99315.60
2018-03-24T21:32:44.589Z,99310.56
2018-03-24T21:35:14.495Z,99309.06
2018-03-24T21:40:18.910Z,99313.38
2018-03-24T21:42:48.090Z,99309.82
2018-03-24T21:45:17.213Z,99313.67
2018-03-24T21:47:46.413Z,99311.98
2018-03-24T21:50:15.575Z,99321.01
2018-03-24T21:52:44.701Z,99321.56
2018-03-24T21:55:13.820Z,99328.48
2018-03-24T21:57:43.705Z,99324.66
2018-03-24T22:00:12.874Z,99326.11
2018-03-24T22:02:42.737Z,99322.97
2018-03-24T22:05:11.890Z,99324.48
2018-03-24T22:07:41.006Z,99328.36
2018-03-24T22:10:10.174Z,99319.17
2018-03-24T22:12:39.356Z,99324.77
2018-03-24T22:15:09.259Z,99317.52
2018-03-24T22:17:39.118Z,99315.34
2018-03-24T22:20:09.031Z,99321.47
2018-03-24T22:22:38.177Z,99314.86
2018-03-24T22:25:08.091Z,99317.05
2018-03-24T22:27:38.058Z,99312.34
2018-03-24T22:42:53.861Z,99312.86
2018-03-24T22:45:22.999Z,99316.05
2018-03-24T22:47:52.101Z,99315.16
2018-03-24T22:50:21.224Z,99314.16
2018-03-24T22:52:50.351Z,99314.13
2018-03-24T22:55:19.495Z,99315.59
2018-03-24T22:57:48.618Z,99305.98
2018-03-24T23:00:17.773Z,99313.49
2018-03-24T23:02:47.636Z,99310.94
2018-03-24T23:05:17.525Z,99312.92
2018-03-24T23:07:46.650Z,99315.92
2018-03-24T23:10:15.809Z,99312.62
2018-03-24T23:12:44.954Z,99312.78
2018-03-24T23:15:14.061Z,99313.56
2018-03-24T23:17:43.968Z,99312.01
2018-03-24T23:20:13.826Z,99305.71
2018-03-24T23:22:43.019Z,99306.32
2018-03-24T23:25:12.134Z,99302.66
2018-03-24T23:27:41.278Z,99301.05
2018-03-24T23:30:10.408Z,99307.84
2018-03-24T23:32:39.530Z,99303.17
2018-03-24T23:35:08.671Z,99308.22
2018-03-24T23:37:37.814Z,99307.71
2018-03-24T23:40:06.958Z,99309.38
2018-03-24T23:42:36.054Z,99308.83
2018-03-24T23:45:05.179Z,99316.39
2018-03-24T23:47:34.286Z,99323.44
2018-03-24T23:50:03.414Z,99317.34
2018-03-24T23:52:32.532Z,99324.45
2018-03-24T23:55:01.702Z,99329.84
2018-03-24T23:57:30.821Z,99329.86
2018-03-24T23:59:59.946Z,99333.56
